createdAt,value
2023-05-06T00:02:04.052Z,100371.84
2023-05-06T00:05:13.045Z,100371.63
2023-05-06T00:08:16.632Z,100372.84
2023-05-06T00:11:23.306Z,100378.53
2023-05-06T00:14:29.457Z,100381.28
2023-05-06T00:17:42.335Z,100376.69
2023-05-06T00:20:48.947Z,100381.31
2023-05-06T00:24:04.277Z,100383.94
2023-05-06T00:27:14.447Z,100382.84
2023-05-06T00:30:22.628Z,100374.75
2023-05-06T00:33:28.966Z,100366.22
2023-05-06T00:36:38.184Z,100367.16
2023-05-06T00:39:44.822Z,100367.66
2023-05-06T00:42:58.449Z,100376.69
2023-05-06T00:46:06.636Z,100377.53
2023-05-06T00:49:24.053Z,100374.06
2023-05-06T00:52:28.561Z,100367.41
2023-05-06T00:55:35.702Z,100370.50
2023-05-06T00:58:46.916Z,100371.69
2023-05-06T01:01:57.054Z,100364.94
2023-05-06T01:05:06.343Z,100362.69
2023-05-06T01:08:15.179Z,100368.41
2023-05-06T01:11:44.913Z,100369.25
2023-05-06T01:15:42.294Z,100365.91
2023-05-06T01:19:00.136Z,100368.91
2023-05-06T01:22:10.272Z,100365.81
2023-05-06T01:25:51.138Z,100368.91
2023-05-06T01:29:00.698Z,100373.44
2023-05-06T01:32:46.120Z,100384.84
2023-05-06T01:36:27.069Z,100377.59
2023-05-06T01:39:40.431Z,100381.38
2023-05-06T01:42:52.229Z,100388.38
2023-05-06T01:46:05.207Z,100384.34
2023-05-06T01:49:15.813Z,100379.59
2023-05-06T01:52:28.865Z,100389.22
2023-05-06T01:55:45.108Z,100391.94
2023-05-06T01:58:51.831Z,100391.47
2023-05-06T02:02:02.033Z,100388.38
2023-05-06T02:05:09.405Z,100384.12
2023-05-06T02:08:13.197Z,100388.16
2023-05-06T02:11:19.964Z,100386.25
2023-05-06T02:14:31.720Z,100384.81
2023-05-06T02:17:38.394Z,100389.44
2023-05-06T02:21:08.278Z,100383.78
2023-05-06T02:24:14.929Z,100382.81
2023-05-06T02:27:26.713Z,100383.84
2023-05-06T02:30:43.331Z,100394.78
2023-05-06T02:33:50.417Z,100390.13
2023-05-06T02:37:05.706Z,100391.44
2023-05-06T02:40:17.475Z,100389.16
2023-05-06T02:43:25.978Z,100394.50
2023-05-06T02:46:33.214Z,100386.91
2023-05-06T02:49:35.928Z,100386.22
2023-05-06T02:52:48.777Z,100383.13
2023-05-06T02:55:58.313Z,100381.81
2023-05-06T02:59:14.094Z,100378.84
2023-05-06T03:02:16.855Z,100383.69
2023-05-06T03:05:25.076Z,100384.97
2023-05-06T03:08:43.707Z,100378.34
2023-05-06T03:11:54.523Z,100381.03
2023-05-06T03:15:14.969Z,100378.34
2023-05-06T03:18:18.211Z,100378.34
2023-05-06T03:21:21.460Z,100387.56
2023-05-06T03:24:33.597Z,100384.97
2023-05-06T03:27:38.388Z,100376.91
2023-05-06T03:30:42.211Z,100382.63
2023-05-06T03:34:05.784Z,100377.19
2023-05-06T03:37:08.784Z,100388.09
2023-05-06T03:40:33.842Z,100384.53
2023-05-06T03:43:59.027Z,100381.47
2023-05-06T03:47:12.883Z,100382.69
2023-05-06T03:50:30.066Z,100389.56
2023-05-06T03:53:33.013Z,100385.91
2023-05-06T03:56:51.551Z,100396.31
2023-05-06T03:59:58.823Z,100404.53
2023-05-06T04:03:10.507Z,100394.44
2023-05-06T04:06:19.059Z,100400.97
2023-05-06T04:09:29.401Z,100401.44
2023-05-06T04:12:38.227Z,100406.19
2023-05-06T04:15:47.062Z,100410.34
2023-05-06T04:18:53.367Z,100412.84
2023-05-06T04:22:04.366Z,100409.41
2023-05-06T04:25:12.404Z,100409.53
2023-05-06T04:28:20.281Z,100396.44
2023-05-06T04:31:37.248Z,100400.69
2023-05-06T04:34:57.298Z,100405.53
2023-05-06T04:38:11.674Z,100403.44
2023-05-06T04:41:15.308Z,100407.19
2023-05-06T04:44:33.429Z,100413.87
2023-05-06T04:48:03.882Z,100410.66
2023-05-06T04:51:15.423Z,100410.94
2023-05-06T04:54:23.938Z,100413.34
2023-05-06T04:57:29.333Z,100410.78
2023-05-06T05:00:46.508Z,100415.63
2023-05-06T05:04:01.315Z,100410.78
2023-05-06T05:07:06.490Z,100413.22
2023-05-06T05:10:34.050Z,100413.19
2023-05-06T05:13:46.859Z,100412.91
2023-05-06T05:16:56.268Z,100415.75
2023-05-06T05:20:10.557Z,100416.44
2023-05-06T05:23:25.118Z,100417.44
2023-05-06T05:26:30.802Z,100411.09
2023-05-06T05:29:42.474Z,100405.28
2023-05-06T05:32:53.166Z,100407.53
2023-05-06T05:36:04.676Z,100409.44
2023-05-06T05:39:25.862Z,100406.34
2023-05-06T05:42:39.489Z,100409.16
2023-05-06T05:45:48.726Z,100404.88
2023-05-06T05:48:59.882Z,100410.53
2023-05-06T05:52:09.505Z,100412.72
2023-05-06T05:55:14.728Z,100409.09
2023-05-06T05:58:26.054Z,100399.56
2023-05-06T06:01:51.706Z,100396.34
2023-05-06T06:05:02.759Z,100396.72
2023-05-06T06:08:15.751Z,100395.34
2023-05-06T06:11:25.422Z,100397.88
2023-05-06T06:14:35.071Z,100407.72
2023-05-06T06:17:43.138Z,100401.22
2023-05-06T06:20:52.495Z,100400.78
2023-05-06T06:23:56.699Z,100399.28
2023-05-06T06:27:12.430Z,100406.03
2023-05-06T06:30:20.990Z,100406.28
2023-05-06T06:33:29.771Z,100406.69
2023-05-06T06:36:33.534Z,100408.38
2023-05-06T06:39:44.265Z,100410.59
2023-05-06T06:42:48.379Z,100412.78
2023-05-06T06:46:09.146Z,100411.97
2023-05-06T06:49:24.507Z,100417.44
2023-05-06T06:52:36.715Z,100413.56
2023-05-06T06:55:43.235Z,100413.16
2023-05-06T06:58:47.579Z,100411.28
2023-05-06T07:01:56.169Z,100412.78
2023-05-06T07:05:15.425Z,100405.12
2023-05-06T07:08:25.035Z,100402.03
2023-05-06T07:11:37.156Z,100401.50
2023-05-06T07:14:46.340Z,100412.50
2023-05-06T07:17:51.729Z,100414.53
2023-05-06T07:20:58.714Z,100416.84
2023-05-06T07:24:05.014Z,100419.00
2023-05-06T07:27:20.989Z,100419.72
2023-05-06T07:30:27.508Z,100424.69
2023-05-06T07:33:41.922Z,100421.03
2023-05-06T07:36:56.650Z,100418.09
2023-05-06T07:40:21.412Z,100420.56
2023-05-06T07:43:28.777Z,100422.72
2023-05-06T07:46:35.874Z,100420.56
2023-05-06T07:49:41.289Z,100426.69
2023-05-06T07:53:02.594Z,100424.25
2023-05-06T07:56:10.575Z,100424.22
2023-05-06T07:59:37.049Z,100413.91
2023-05-06T08:02:44.475Z,100427.37
2023-05-06T08:05:53.171Z,100425.16
2023-05-06T08:09:22.024Z,100433.47
2023-05-06T08:12:28.112Z,100436.00
2023-05-06T08:15:36.493Z,100428.69
2023-05-06T08:18:44.626Z,100428.75
2023-05-06T08:21:55.074Z,100426.41
2023-05-06T08:25:04.002Z,100430.03
2023-05-06T08:28:13.672Z,100431.00
2023-05-06T08:31:18.284Z,100432.41
2023-05-06T08:37:52.161Z,100428.78
2023-05-06T08:41:00.978Z,100430.91
2023-05-06T08:44:09.240Z,100431.62
2023-05-06T08:47:16.150Z,100433.81
2023-05-06T08:50:22.805Z,100437.25
2023-05-06T08:53:27.223Z,100430.88
2023-05-06T08:56:37.513Z,100437.03
2023-05-06T08:59:51.691Z,100437.66
2023-05-06T09:02:57.104Z,100437.63
2023-05-06T09:06:25.905Z,100428.94
2023-05-06T09:09:29.296Z,100435.00
2023-05-06T09:12:44.079Z,100437.44
2023-05-06T09:15:52.422Z,100427.84
2023-05-06T09:19:17.121Z,100423.06
2023-05-06T09:22:27.081Z,100419.56
2023-05-06T09:25:30.058Z,100427.53
2023-05-06T09:28:40.483Z,100424.81
2023-05-06T09:31:48.512Z,100424.31
2023-05-06T09:34:56.960Z,100414.72
2023-05-06T09:38:08.758Z,100415.25
2023-05-06T09:41:15.520Z,100406.97
2023-05-06T09:44:18.538Z,100409.47
2023-05-06T09:47:36.653Z,100408.69
2023-05-06T09:50:42.907Z,100398.50
2023-05-06T09:53:58.028Z,100392.81
2023-05-06T09:57:07.145Z,100392.16
2023-05-06T10:00:15.228Z,100388.91
2023-05-06T10:03:22.092Z,100392.16
2023-05-06T10:06:27.945Z,100391.50
2023-05-06T10:09:46.620Z,100379.22
2023-05-06T10:12:51.409Z,100369.81
2023-05-06T10:16:07.382Z,100364.78
2023-05-06T10:19:22.838Z,100365.94
2023-05-06T10:23:09.347Z,100358.94
2023-05-06T10:26:24.483Z,100354.22
2023-05-06T10:29:40.199Z,100358.66
2023-05-06T10:32:47.650Z,100351.06
2023-05-06T10:36:22.493Z,100347.44
2023-05-06T10:39:29.779Z,100351.50
2023-05-06T10:42:38.163Z,100344.91
2023-05-06T10:46:12.311Z,100338.44
2023-05-06T10:49:20.378Z,100339.69
2023-05-06T10:52:49.125Z,100328.28
2023-05-06T10:56:10.430Z,100328.87
2023-05-06T10:59:21.194Z,100324.44
2023-05-06T11:02:36.473Z,100311.41
2023-05-06T11:05:55.104Z,100316.06
2023-05-06T11:09:02.048Z,100318.84
2023-05-06T11:12:23.155Z,100314.94
2023-05-06T11:15:38.059Z,100320.19
2023-05-06T11:18:42.936Z,100312.38
2023-05-06T11:21:47.589Z,100307.47
2023-05-06T11:25:03.976Z,100306.72
2023-05-06T11:28:19.245Z,100294.69
2023-05-06T11:31:27.780Z,100292.38
2023-05-06T11:34:42.580Z,100293.84
2023-05-06T11:37:48.175Z,100283.59
2023-05-06T11:40:56.197Z,100286.84
2023-05-06T11:44:10.899Z,100295.84
2023-05-06T11:47:29.660Z,100289.84
2023-05-06T11:50:37.915Z,100285.50
2023-05-06T11:53:47.865Z,100285.59
2023-05-06T11:57:00.457Z,100282.84
2023-05-06T12:00:14.456Z,100281.47
2023-05-06T12:03:34.036Z,100274.44
2023-05-06T12:06:42.077Z,100273.00
2023-05-06T12:09:50.350Z,100271.59
2023-05-06T12:13:02.141Z,100269.84
2023-05-06T12:16:09.685Z,100278.59
2023-05-06T12:19:19.233Z,100258.97
2023-05-06T12:22:24.828Z,100266.38
2023-05-06T12:25:35.422Z,100262.09
2023-05-06T12:28:43.813Z,100249.28
2023-05-06T12:31:47.593Z,100258.16
2023-05-06T12:34:58.445Z,100259.66
2023-05-06T12:38:12.537Z,100256.00
2023-05-06T12:41:18.010Z,100256.56
2023-05-06T12:44:42.045Z,100253.00
2023-05-06T12:48:22.205Z,100256.34
2023-05-06T12:51:30.258Z,100240.72
2023-05-06T12:54:38.778Z,100239.84
2023-05-06T12:57:46.909Z,100236.06
2023-05-06T13:00:56.035Z,100222.41
2023-05-06T13:04:00.909Z,100227.34
2023-05-06T13:07:18.886Z,100225.81
2023-05-06T13:10:27.128Z,100217.28
2023-05-06T13:13:32.643Z,100221.47
2023-05-06T13:16:47.769Z,100230.13
2023-05-06T13:19:56.832Z,100223.72
2023-05-06T13:23:12.197Z,100221.88
2023-05-06T13:26:31.417Z,100225.53
2023-05-06T13:29:41.882Z,100217.81
2023-05-06T13:32:49.035Z,100218.09
2023-05-06T13:35:51.534Z,100215.00
2023-05-06T13:39:09.390Z,100209.75
2023-05-06T13:42:19.780Z,100208.16
2023-05-06T13:45:36.821Z,100207.56
2023-05-06T13:48:40.316Z,100194.81
2023-05-06T13:51:47.342Z,100198.47
2023-05-06T13:54:58.869Z,100185.56
2023-05-06T13:58:10.958Z,100181.56
2023-05-06T14:01:20.547Z,100187.56
2023-05-06T14:04:26.442Z,100180.38
2023-05-06T14:07:41.948Z,100186.88
2023-05-06T14:10:45.982Z,100185.56
2023-05-06T14:13:50.881Z,100177.75
2023-05-06T14:16:57.826Z,100170.13
2023-05-06T14:20:35.063Z,100175.19
2023-05-06T14:23:48.456Z,100173.44
2023-05-06T14:26:57.026Z,100160.62
2023-05-06T14:30:08.619Z,100161.91
2023-05-06T14:33:12.248Z,100160.50
2023-05-06T14:36:26.042Z,100157.03
2023-05-06T14:39:35.562Z,100158.94
2023-05-06T14:43:00.434Z,100161.19
2023-05-06T14:46:17.266Z,100160.25
2023-05-06T14:49:25.842Z,100157.53
2023-05-06T14:52:36.846Z,100157.75
2023-05-06T14:55:42.404Z,100156.06
2023-05-06T14:58:52.558Z,100148.94
2023-05-06T15:01:59.945Z,100145.97
2023-05-06T15:05:13.513Z,100142.00
2023-05-06T15:08:19.555Z,100143.09
2023-05-06T15:11:21.929Z,100144.84
2023-05-06T15:14:30.798Z,100152.72
2023-05-06T15:17:41.434Z,100142.41
2023-05-06T15:20:50.928Z,100144.22
2023-05-06T15:24:03.370Z,100141.13
2023-05-06T15:27:18.041Z,100138.69
2023-05-06T15:30:30.059Z,100136.78
2023-05-06T15:33:39.258Z,100144.59
2023-05-06T15:36:45.767Z,100141.19
2023-05-06T15:39:53.509Z,100129.59
2023-05-06T15:43:06.734Z,100126.41
2023-05-06T15:46:16.195Z,100128.75
2023-05-06T15:49:45.720Z,100127.97
2023-05-06T15:52:51.860Z,100122.59
2023-05-06T15:56:13.143Z,100117.50
2023-05-06T15:59:29.454Z,100117.12
2023-05-06T16:02:35.062Z,100128.69
2023-05-06T16:05:43.105Z,100118.34
2023-05-06T16:08:48.237Z,100120.44
2023-05-06T16:11:54.654Z,100111.66
2023-05-06T16:18:31.688Z,100118.81
2023-05-06T16:21:44.509Z,100111.25
2023-05-06T16:24:57.913Z,100117.88
2023-05-06T16:28:26.199Z,100117.69
2023-05-06T16:31:34.956Z,100116.50
2023-05-06T16:34:44.722Z,100119.78
2023-05-06T16:37:58.404Z,100127.97
2023-05-06T16:41:06.626Z,100122.47
2023-05-06T16:44:09.316Z,100117.78
2023-05-06T16:47:14.100Z,100119.22
2023-05-06T16:50:21.244Z,100114.72
2023-05-06T16:53:36.727Z,100115.72
2023-05-06T16:56:52.114Z,100125.97
2023-05-06T16:59:59.686Z,100122.69
2023-05-06T17:03:11.407Z,100124.75
2023-05-06T17:06:20.434Z,100115.72
2023-05-06T17:09:48.577Z,100121.00
2023-05-06T17:12:58.693Z,100119.16
2023-05-06T17:16:08.097Z,100109.91
2023-05-06T17:19:12.086Z,100118.06
2023-05-06T17:22:20.460Z,100119.25
2023-05-06T17:25:29.334Z,100124.53
2023-05-06T17:28:34.972Z,100123.44
2023-05-06T17:31:41.311Z,100120.31
2023-05-06T17:34:54.587Z,100125.56
2023-05-06T17:38:01.055Z,100129.97
2023-05-06T17:41:08.735Z,100122.34
2023-05-06T17:44:18.917Z,100128.25
2023-05-06T17:47:27.021Z,100131.66
2023-05-06T17:50:34.227Z,100129.75
2023-05-06T17:53:50.579Z,100133.94
2023-05-06T17:56:58.748Z,100136.72
2023-05-06T18:00:12.209Z,100142.16
2023-05-06T18:03:17.934Z,100137.03
2023-05-06T18:06:29.842Z,100150.50
2023-05-06T18:09:37.847Z,100149.88
2023-05-06T18:12:46.877Z,100146.56
2023-05-06T18:15:53.217Z,100152.28
2023-05-06T18:19:25.710Z,100159.59
2023-05-06T18:22:34.299Z,100162.31
2023-05-06T18:25:49.745Z,100186.41
2023-05-06T18:28:55.327Z,100224.28
2023-05-06T18:32:02.137Z,100212.66
2023-05-06T18:35:14.076Z,100195.72
2023-05-06T18:41:57.861Z,100217.38
2023-05-06T18:45:13.328Z,100215.72
2023-05-06T18:48:29.180Z,100227.41
2023-05-06T18:51:36.983Z,100219.56
2023-05-06T18:54:45.093Z,100225.00
2023-05-06T18:57:48.438Z,100217.78
2023-05-06T19:01:13.275Z,100224.78
2023-05-06T19:04:28.089Z,100230.91
2023-05-06T19:07:37.879Z,100238.88
2023-05-06T19:10:52.625Z,100245.59
2023-05-06T19:14:07.281Z,100254.84
2023-05-06T19:17:19.498Z,100247.31
2023-05-06T19:20:27.305Z,100248.78
2023-05-06T19:23:40.301Z,100233.06
2023-05-06T19:26:47.131Z,100216.84
2023-05-06T19:29:53.760Z,100214.72
2023-05-06T19:33:00.670Z,100220.69
2023-05-06T19:36:21.679Z,100240.84
2023-05-06T19:39:26.428Z,100239.56
2023-05-06T19:42:31.563Z,100262.72
2023-05-06T19:45:34.305Z,100271.28
2023-05-06T19:48:53.224Z,100272.13
2023-05-06T19:52:02.025Z,100272.66
2023-05-06T19:55:07.710Z,100271.88
2023-05-06T19:58:14.212Z,100263.63
2023-05-06T20:01:20.585Z,100260.84
2023-05-06T20:04:24.464Z,100244.63
2023-05-06T20:07:55.020Z,100248.25
2023-05-06T20:11:02.971Z,100257.97
2023-05-06T20:14:10.315Z,100252.38
2023-05-06T20:17:16.584Z,100265.41
2023-05-06T20:20:23.098Z,100277.09
2023-05-06T20:23:33.440Z,100272.97
2023-05-06T20:26:37.784Z,100268.66
2023-05-06T20:29:42.636Z,100266.34
2023-05-06T20:32:57.680Z,100277.84
2023-05-06T20:36:05.501Z,100286.59
2023-05-06T20:39:11.726Z,100276.19
2023-05-06T20:42:24.953Z,100265.31
2023-05-06T20:45:45.822Z,100267.63
2023-05-06T20:48:55.367Z,100262.34
2023-05-06T20:52:03.922Z,100253.09
2023-05-06T20:55:08.755Z,100267.25
2023-05-06T20:58:14.034Z,100271.81
2023-05-06T21:01:22.893Z,100279.72
2023-05-06T21:04:38.129Z,100283.66
2023-05-06T21:07:43.310Z,100288.72
2023-05-06T21:11:06.254Z,100297.13
2023-05-06T21:14:15.373Z,100286.81
2023-05-06T21:17:23.869Z,100278.66
2023-05-06T21:20:27.797Z,100261.00
2023-05-06T21:23:34.259Z,100250.00
2023-05-06T21:26:47.452Z,100244.06
2023-05-06T21:30:07.846Z,100247.69
2023-05-06T21:33:16.028Z,100241.06
2023-05-06T21:36:22.489Z,100229.50
2023-05-06T21:39:36.613Z,100221.25
2023-05-06T21:42:44.714Z,100221.09
2023-05-06T21:45:50.990Z,100220.13
2023-05-06T21:49:09.540Z,100212.75
2023-05-06T21:52:20.793Z,100215.06
2023-05-06T21:55:39.126Z,100220.50
2023-05-06T21:58:58.809Z,100224.97
2023-05-06T22:02:09.947Z,100225.31
2023-05-06T22:05:28.517Z,100222.09
2023-05-06T22:08:33.900Z,100225.38
2023-05-06T22:11:51.820Z,100221.78
2023-05-06T22:15:16.142Z,100223.13
2023-05-06T22:18:30.945Z,100226.91
2023-05-06T22:22:00.805Z,100221.31
2023-05-06T22:25:12.831Z,100222.47
2023-05-06T22:28:19.791Z,100224.78
2023-05-06T22:31:28.109Z,100219.53
2023-05-06T22:34:36.859Z,100218.50
2023-05-06T22:37:43.102Z,100199.09
2023-05-06T22:40:48.392Z,100202.09
2023-05-06T22:43:57.341Z,100195.69
2023-05-06T22:47:03.881Z,100190.94
2023-05-06T22:50:14.619Z,100182.75
2023-05-06T22:53:33.261Z,100189.47
2023-05-06T22:56:40.029Z,100191.59
2023-05-06T22:59:59.214Z,100196.03
2023-05-06T23:03:07.383Z,100192.59
2023-05-06T23:06:19.316Z,100189.63
2023-05-06T23:09:34.928Z,100188.78
2023-05-06T23:13:04.014Z,100193.72
2023-05-06T23:16:21.468Z,100186.69
2023-05-06T23:19:24.112Z,100191.00
2023-05-06T23:22:29.562Z,100183.72
2023-05-06T23:25:39.958Z,100187.66
2023-05-06T23:28:44.894Z,100180.03
2023-05-06T23:32:00.671Z,100174.78
2023-05-06T23:35:17.695Z,100178.06
2023-05-06T23:38:29.290Z,100184.62
2023-05-06T23:41:41.562Z,100183.66
2023-05-06T23:44:46.147Z,100182.81
2023-05-06T23:47:52.279Z,100179.84
2023-05-06T23:51:00.565Z,100177.34
2023-05-06T23:54:21.187Z,100182.31
2023-05-06T23:57:37.815Z,100174.06
